Gildeskaal — LLDI — position and weather

sailwx.info

Track history (hours):
 
Tides and Currents Weather Stations Pressure Air Temp Water Temp Dewpoint Dewpoint Depression Visibility Wind Speed Wind Dir Waves Ship Positions

Gildeskaal

Last reported at 2015-Aug-31 08:33 UTC. Time now 2015-Aug-31 08:53 UTC.
Position N 67°08' E 013°59'.

Length 52 m; draft 3.2 m.

Type: Ship. MMSI: 259680000.

Date/timePositionNaut miles runAvg speedWind from/ knotsBaromVisibWave heightAir tempDewpointWater temp
2015-Aug-31 08:33N 67°08' E 013°59'2 2.0
2015-Aug-31 07:34N 67°06' E 013°59'3 2.2
2015-Aug-31 06:17N 67°04' E 014°04'1 1.3
2015-Aug-31 05:27N 67°05' E 014°02'3 3.8
2015-Aug-31 04:33N 67°08' E 013°59'0 0.0
2015-Aug-31 03:33N 67°08' E 013°59'0 0.0
2015-Aug-31 02:33N 67°08' E 013°59'0 0.0
2015-Aug-31 01:33N 67°08' E 013°59'0 0.0
2015-Aug-31 00:33N 67°08' E 013°59'0 0.0
2015-Aug-30 23:34N 67°08' E 013°59'0 0.0
2015-Aug-30 22:33N 67°08' E 013°59'0 0.0
2015-Aug-30 21:33N 67°08' E 013°59'0 0.0
2015-Aug-30 20:33N 67°08' E 013°59'0 0.0
2015-Aug-30 19:33N 67°08' E 013°59'4 3.9
2015-Aug-30 18:33N 67°05' E 014°04'1 0.7
2015-Aug-30 17:24N 67°05' E 014°02'2 2.6
2015-Aug-30 16:33N 67°07' E 013°59'3 2.9
2015-Aug-30 15:28N 67°04' E 014°04'4 4.7
2015-Aug-30 14:33N 67°08' E 013°59'1 1.3
2015-Aug-30 13:33N 67°07' E 013°59'3 0.7
2015-Aug-30 08:33N 67°04' E 014°04'4 3.7
2015-Aug-30 07:33N 67°07' E 013°59'4 0.2
2015-Aug-29 16:20N 67°04' E 014°04'2 2.3
2015-Aug-29 15:33N 67°05' E 014°00'1 1.1
2015-Aug-29 14:24N 67°05' E 014°03'1 0.3
2015-Aug-29 09:33N 67°06' E 013°60'2 2.5
2015-Aug-29 08:33N 67°08' E 013°59'1 1.4
2015-Aug-29 07:33N 67°07' E 013°59'2 2.0
2015-Aug-29 06:31N 67°05' E 014°03'3 3.4
2015-Aug-29 05:33N 67°08' E 013°59'0 0.0
2015-Aug-29 04:34N 67°08' E 013°59'0 0.0
2015-Aug-29 03:33N 67°08' E 013°59'0 0.0
2015-Aug-29 02:33N 67°08' E 013°59'0 0.0
2015-Aug-29 01:33N 67°08' E 013°59'0 0.0
2015-Aug-29 00:33N 67°08' E 013°59'0 0.0
2015-Aug-28 23:34N 67°08' E 013°59'0 0.0
2015-Aug-28 22:33N 67°08' E 013°59'0 0.0
2015-Aug-28 21:31N 67°08' E 013°59'0 0.0
2015-Aug-28 20:34N 67°08' E 013°59'0 0.0
2015-Aug-28 19:33N 67°08' E 013°59'4 4.0
2015-Aug-28 18:33N 67°05' E 014°04'3 3.1
2015-Aug-28 17:33N 67°07' E 013°59'3 3.3
2015-Aug-28 16:31N 67°04' E 014°04'2 1.8
2015-Aug-28 15:32N 67°05' E 014°00'1 0.7
2015-Aug-28 14:33N 67°05' E 014°02'0 0.1
2015-Aug-28 13:31N 67°05' E 014°02'3 3.5
2015-Aug-28 12:33N 67°08' E 013°59'0 0.0
2015-Aug-28 11:33N 67°08' E 013°59'3 3.3
2015-Aug-28 10:33N 67°05' E 014°01'1 1.3
2015-Aug-28 09:33N 67°06' E 013°59'2 2.2
2015-Aug-28 08:33N 67°08' E 013°59'1 0.8
2015-Aug-28 07:33N 67°07' E 013°59'3 1.2
2015-Aug-28 05:30N 67°05' E 014°03'3 3.4
2015-Aug-28 04:33N 67°08' E 013°59'0 0.0
2015-Aug-28 03:33N 67°08' E 013°59'0 0.0
2015-Aug-28 02:33N 67°08' E 013°59'0 0.0
2015-Aug-28 01:33N 67°08' E 013°59'0 0.0
2015-Aug-28 00:33N 67°08' E 013°59'0 0.0
2015-Aug-27 23:33N 67°08' E 013°59'0 0.0
2015-Aug-27 22:33N 67°08' E 013°59'0 0.0
2015-Aug-27 21:34N 67°08' E 013°59'0 0.0
2015-Aug-27 20:33N 67°08' E 013°59'0 0.0
2015-Aug-27 19:33N 67°08' E 013°59'4 3.6
2015-Aug-27 18:29N 67°05' E 014°04'4 3.9
2015-Aug-27 17:33N 67°08' E 013°58'3 2.7
2015-Aug-27 16:33N 67°05' E 014°00'3 3.1
2015-Aug-27 15:33N 67°08' E 013°59'3 3.2
2015-Aug-27 14:32N 67°05' E 014°01'1 1.0
2015-Aug-27 13:31N 67°05' E 014°04'4 4.0
2015-Aug-27 12:34N 67°08' E 013°59'0 0.0
2015-Aug-27 11:33N 67°08' E 013°59'2 2.1
2015-Aug-27 10:33N 67°06' E 013°59'0 0.2
2015-Aug-27 09:34N 67°06' E 013°59'2 2.0
2015-Aug-27 08:33N 67°08' E 013°59'1 1.2
2015-Aug-27 07:33N 67°07' E 013°59'2 1.1
2015-Aug-27 05:30N 67°05' E 014°03'3 3.4
2015-Aug-27 04:33N 67°08' E 013°59'0 0.0
2015-Aug-27 03:33N 67°08' E 013°59'0 0.0
2015-Aug-27 02:33N 67°08' E 013°59'0 0.0
2015-Aug-27 01:33N 67°08' E 013°59'0 0.0
2015-Aug-27 00:33N 67°08' E 013°59'0 0.0
2015-Aug-26 23:33N 67°08' E 013°59'0 0.0
2015-Aug-26 22:33N 67°08' E 013°59'0 0.0
2015-Aug-26 21:33N 67°08' E 013°59'0 0.0
2015-Aug-26 20:33N 67°08' E 013°59'0 0.0
2015-Aug-26 19:33N 67°08' E 013°59'4 3.8
2015-Aug-26 18:30N 67°05' E 014°04'3 3.3
2015-Aug-26 17:33N 67°07' E 013°59'2 2.0
2015-Aug-26 16:32N 67°05' E 014°00'3 3.1
2015-Aug-26 15:34N 67°08' E 013°59'4 3.0
2015-Aug-26 14:18N 67°05' E 014°04'0 0.0
2015-Aug-26 13:33N 67°05' E 014°04'4 3.8
2015-Aug-26 12:33N 67°08' E 013°59'0 0.0
2015-Aug-26 11:33N 67°08' E 013°59'2 2.2
2015-Aug-26 10:33N 67°06' E 013°59'0 0.3
2015-Aug-26 09:33N 67°06' E 013°60'2 2.4
2015-Aug-26 08:33N 67°08' E 013°59'1 1.0
2015-Aug-26 07:33N 67°07' E 013°59'2 1.1
2015-Aug-26 05:27N 67°05' E 014°02'3 3.8
2015-Aug-26 04:33N 67°08' E 013°59'0 0.0
2015-Aug-26 03:33N 67°08' E 013°59'0 0.0
2015-Aug-26 02:33N 67°08' E 013°59'0 0.0
2015-Aug-26 01:33N 67°08' E 013°59'0 0.0
2015-Aug-26 00:33N 67°08' E 013°59'0 0.0
2015-Aug-25 23:33N 67°08' E 013°59'0 0.0
2015-Aug-25 22:33N 67°08' E 013°59'0 0.0
2015-Aug-25 21:33N 67°08' E 013°59'0 0.0
2015-Aug-25 20:34N 67°08' E 013°59'0 0.0
2015-Aug-25 19:33N 67°08' E 013°59'4 3.8
2015-Aug-25 18:30N 67°05' E 014°04'3 3.5
2015-Aug-25 17:33N 67°07' E 013°59'3 2.6
2015-Aug-25 16:33N 67°05' E 014°01'3 3.3
2015-Aug-25 15:33N 67°08' E 013°59'3 2.9
2015-Aug-25 14:27N 67°05' E 014°03'1 0.7
2015-Aug-25 13:31N 67°05' E 014°02'3 3.6
2015-Aug-25 12:33N 67°08' E 013°59'0 0.0
2015-Aug-25 11:34N 67°08' E 013°59'2 2.3
2015-Aug-25 10:33N 67°06' E 013°59'0 0.2
2015-Aug-25 09:33N 67°06' E 013°59'3 2.5
2015-Aug-25 08:33N 67°08' E 013°59'1 0.9
2015-Aug-25 07:33N 67°07' E 013°59'3 1.3
2015-Aug-25 05:28N 67°05' E 014°02'3 3.7
2015-Aug-25 04:34N 67°08' E 013°59'0 0.0
2015-Aug-25 03:33N 67°08' E 013°59'0 0.0
2015-Aug-25 02:33N 67°08' E 013°59'0 0.0
2015-Aug-25 01:34N 67°08' E 013°59'0 0.0
2015-Aug-25 00:33N 67°08' E 013°59'0 0.0
2015-Aug-24 23:33N 67°08' E 013°59'0 0.0
2015-Aug-24 22:33N 67°08' E 013°59'0 0.0
2015-Aug-24 21:33N 67°08' E 013°59'0 0.0
2015-Aug-24 20:33N 67°08' E 013°59'0 0.0
2015-Aug-24 19:34N 67°08' E 013°59'3 2.7
2015-Aug-24 18:19N 67°05' E 014°02'3 4.1
2015-Aug-24 17:33N 67°08' E 013°58'3 3.0
2015-Aug-24 16:33N 67°05' E 014°01'3 3.4
2015-Aug-24 15:33N 67°08' E 013°59'3 3.2
2015-Aug-24 14:33N 67°05' E 014°01'0 0.3
2015-Aug-24 13:08N 67°05' E 014°02'3 6.0
2015-Aug-24 12:34N 67°08' E 013°59'3 0.9
2015-Aug-24 09:34N 67°05' E 013°59'3 2.7
2015-Aug-24 08:33N 67°08' E 013°59'2 2.1
2015-Aug-24 07:33N 67°06' E 013°59'2 0.9
2015-Aug-24 05:33N 67°05' E 014°03'3 3.3
2015-Aug-24 04:33N 67°08' E 013°59'0 0.0
2015-Aug-24 03:33N 67°08' E 013°59'0 0.0
2015-Aug-24 02:33N 67°08' E 013°59'0 0.0
2015-Aug-24 01:33N 67°08' E 013°59'0 0.0
2015-Aug-24 00:33N 67°08' E 013°59'0 0.0
2015-Aug-23 23:33N 67°08' E 013°59'0 0.0
2015-Aug-23 22:33N 67°08' E 013°59'0 0.0
2015-Aug-23 21:33N 67°08' E 013°59'0 0.0
2015-Aug-23 20:33N 67°08' E 013°59'0 0.0
2015-Aug-23 19:33N 67°08' E 013°59'4 3.9
2015-Aug-23 18:32N 67°05' E 014°04'1 0.6
2015-Aug-23 17:22N 67°05' E 014°02'2 3.1
2015-Aug-23 16:33N 67°07' E 013°59'3 2.7
2015-Aug-23 15:25N 67°05' E 014°04'4 4.5
2015-Aug-23 14:34N 67°08' E 013°59'1 0.9
2015-Aug-23 13:34N 67°07' E 013°59'4 3.5
2015-Aug-23 12:33N 67°04' E 014°04'0 0.0
2015-Aug-23 11:33N 67°04' E 014°04'0 0.0
2015-Aug-23 10:33N 67°04' E 014°04'0 0.1
2015-Aug-23 08:32N 67°05' E 014°04'3 3.3
2015-Aug-23 07:33N 67°07' E 013°59'3 3.4
2015-Aug-23 06:33N 67°04' E 014°04'0 0.0
2015-Aug-23 05:34N 67°04' E 014°04'0 0.0
2015-Aug-23 04:34N 67°04' E 014°04'0 0.0
2015-Aug-23 03:33N 67°04' E 014°04'0 0.0
2015-Aug-23 02:33N 67°04' E 014°04'0 0.0
2015-Aug-23 01:33N 67°04' E 014°04'0 0.0
2015-Aug-23 00:33N 67°04' E 014°04'0 0.0
2015-Aug-22 23:34N 67°04' E 014°04'0 0.0
2015-Aug-22 22:33N 67°04' E 014°04'0 0.0
2015-Aug-22 21:33N 67°04' E 014°04'0 0.0
2015-Aug-22 20:33N 67°04' E 014°04'0 0.0
2015-Aug-22 19:33N 67°04' E 014°04'0 0.0
2015-Aug-22 18:33N 67°04' E 014°04'0 0.0
2015-Aug-22 17:34N 67°04' E 014°04'0 0.0
2015-Aug-22 16:34N 67°04' E 014°04'1 1.4
2015-Aug-22 15:34N 67°05' E 014°01'0 0.3
2015-Aug-22 14:34N 67°05' E 014°01'1 1.2
2015-Aug-22 13:33N 67°04' E 014°04'2 0.6
2015-Aug-22 09:33N 67°06' E 013°59'2 2.5
2015-Aug-22 08:33N 67°08' E 013°59'1 0.9
2015-Aug-22 07:33N 67°07' E 013°59'2 1.2
2015-Aug-22 06:16N 67°06' E 013°59'2 3.4
2015-Aug-22 05:33N 67°08' E 013°59'0 0.0
2015-Aug-22 04:33N 67°08' E 013°59'0 0.0
2015-Aug-22 03:33N 67°08' E 013°59'0 0.0
2015-Aug-22 02:33N 67°08' E 013°59'0 0.0
2015-Aug-22 01:33N 67°08' E 013°59'0 0.0
2015-Aug-22 00:33N 67°08' E 013°59'0 0.0
2015-Aug-21 23:30N 67°08' E 013°59'0 0.0
2015-Aug-21 22:33N 67°08' E 013°59'0 0.0
2015-Aug-21 21:32N 67°08' E 013°59'0 0.0
2015-Aug-21 20:27N 67°08' E 013°59'0 0.0
2015-Aug-21 19:33N 67°08' E 013°59'2 1.8
2015-Aug-21 18:12N 67°06' E 013°59'1 1.6
2015-Aug-21 17:32N 67°07' E 013°59'2 1.0
2015-Aug-21 15:34N 67°05' E 014°01'0 0.0
2015-Aug-21 14:34N 67°05' E 014°01'1 1.0
2015-Aug-21 13:33N 67°05' E 014°03'3 3.2
2015-Aug-21 12:34N 67°08' E 013°59'0 0.0
2015-Aug-21 11:33N 67°08' E 013°59'4 3.4
2015-Aug-21 10:16N 67°04' E 014°04'2 3.0
2015-Aug-21 09:33N 67°05' E 013°59'3 2.8
2015-Aug-21 08:33N 67°08' E 013°59'  
Track history (hours):
 
Tides and Currents Weather Stations Pressure Air Temp Water Temp Dewpoint Dewpoint Depression Visibility Wind Speed Wind Dir Waves Ship Positions

Gildeskaal

Last reported at 2015-Aug-31 08:33 UTC. Time now 2015-Aug-31 08:53 UTC.
Position N 67°08' E 013°59'.

Length 52 m; draft 3.2 m.

Type: Ship. MMSI: 259680000.

Date/timePositionNaut miles runAvg speedWind from/ knotsBaromVisibWave heightAir tempDewpointWater temp
2015-Aug-31 08:33N 67°08' E 013°59'2 2.0
2015-Aug-31 07:34N 67°06' E 013°59'3 2.2
2015-Aug-31 06:17N 67°04' E 014°04'1 1.3
2015-Aug-31 05:27N 67°05' E 014°02'3 3.8
2015-Aug-31 04:33N 67°08' E 013°59'0 0.0
2015-Aug-31 03:33N 67°08' E 013°59'0 0.0
2015-Aug-31 02:33N 67°08' E 013°59'0 0.0
2015-Aug-31 01:33N 67°08' E 013°59'0 0.0
2015-Aug-31 00:33N 67°08' E 013°59'0 0.0
2015-Aug-30 23:34N 67°08' E 013°59'0 0.0
2015-Aug-30 22:33N 67°08' E 013°59'0 0.0
2015-Aug-30 21:33N 67°08' E 013°59'0 0.0
2015-Aug-30 20:33N 67°08' E 013°59'0 0.0
2015-Aug-30 19:33N 67°08' E 013°59'4 3.9
2015-Aug-30 18:33N 67°05' E 014°04'1 0.7
2015-Aug-30 17:24N 67°05' E 014°02'2 2.6
2015-Aug-30 16:33N 67°07' E 013°59'3 2.9
2015-Aug-30 15:28N 67°04' E 014°04'4 4.7
2015-Aug-30 14:33N 67°08' E 013°59'1 1.3
2015-Aug-30 13:33N 67°07' E 013°59'3 0.7
2015-Aug-30 08:33N 67°04' E 014°04'4 3.7
2015-Aug-30 07:33N 67°07' E 013°59'4 0.2
2015-Aug-29 16:20N 67°04' E 014°04'2 2.3
2015-Aug-29 15:33N 67°05' E 014°00'1 1.1
2015-Aug-29 14:24N 67°05' E 014°03'1 0.3
2015-Aug-29 09:33N 67°06' E 013°60'2 2.5
2015-Aug-29 08:33N 67°08' E 013°59'1 1.4
2015-Aug-29 07:33N 67°07' E 013°59'2 2.0
2015-Aug-29 06:31N 67°05' E 014°03'3 3.4
2015-Aug-29 05:33N 67°08' E 013°59'0 0.0
2015-Aug-29 04:34N 67°08' E 013°59'0 0.0
2015-Aug-29 03:33N 67°08' E 013°59'0 0.0
2015-Aug-29 02:33N 67°08' E 013°59'0 0.0
2015-Aug-29 01:33N 67°08' E 013°59'0 0.0
2015-Aug-29 00:33N 67°08' E 013°59'0 0.0
2015-Aug-28 23:34N 67°08' E 013°59'0 0.0
2015-Aug-28 22:33N 67°08' E 013°59'0 0.0
2015-Aug-28 21:31N 67°08' E 013°59'0 0.0
2015-Aug-28 20:34N 67°08' E 013°59'0 0.0
2015-Aug-28 19:33N 67°08' E 013°59'4 4.0
2015-Aug-28 18:33N 67°05' E 014°04'3 3.1
2015-Aug-28 17:33N 67°07' E 013°59'3 3.3
2015-Aug-28 16:31N 67°04' E 014°04'2 1.8
2015-Aug-28 15:32N 67°05' E 014°00'1 0.7
2015-Aug-28 14:33N 67°05' E 014°02'0 0.1
2015-Aug-28 13:31N 67°05' E 014°02'3 3.5
2015-Aug-28 12:33N 67°08' E 013°59'0 0.0
2015-Aug-28 11:33N 67°08' E 013°59'3 3.3
2015-Aug-28 10:33N 67°05' E 014°01'1 1.3
2015-Aug-28 09:33N 67°06' E 013°59'2 2.2
2015-Aug-28 08:33N 67°08' E 013°59'1 0.8
2015-Aug-28 07:33N 67°07' E 013°59'3 1.2
2015-Aug-28 05:30N 67°05' E 014°03'3 3.4
2015-Aug-28 04:33N 67°08' E 013°59'0 0.0
2015-Aug-28 03:33N 67°08' E 013°59'0 0.0
2015-Aug-28 02:33N 67°08' E 013°59'0 0.0
2015-Aug-28 01:33N 67°08' E 013°59'0 0.0
2015-Aug-28 00:33N 67°08' E 013°59'0 0.0
2015-Aug-27 23:33N 67°08' E 013°59'0 0.0
2015-Aug-27 22:33N 67°08' E 013°59'0 0.0
2015-Aug-27 21:34N 67°08' E 013°59'0 0.0
2015-Aug-27 20:33N 67°08' E 013°59'0 0.0
2015-Aug-27 19:33N 67°08' E 013°59'4 3.6
2015-Aug-27 18:29N 67°05' E 014°04'4 3.9
2015-Aug-27 17:33N 67°08' E 013°58'3 2.7
2015-Aug-27 16:33N 67°05' E 014°00'3 3.1
2015-Aug-27 15:33N 67°08' E 013°59'3 3.2
2015-Aug-27 14:32N 67°05' E 014°01'1 1.0
2015-Aug-27 13:31N 67°05' E 014°04'4 4.0
2015-Aug-27 12:34N 67°08' E 013°59'0 0.0
2015-Aug-27 11:33N 67°08' E 013°59'2 2.1
2015-Aug-27 10:33N 67°06' E 013°59'0 0.2
2015-Aug-27 09:34N 67°06' E 013°59'2 2.0
2015-Aug-27 08:33N 67°08' E 013°59'1 1.2
2015-Aug-27 07:33N 67°07' E 013°59'2 1.1
2015-Aug-27 05:30N 67°05' E 014°03'3 3.4
2015-Aug-27 04:33N 67°08' E 013°59'0 0.0
2015-Aug-27 03:33N 67°08' E 013°59'0 0.0
2015-Aug-27 02:33N 67°08' E 013°59'0 0.0
2015-Aug-27 01:33N 67°08' E 013°59'0 0.0
2015-Aug-27 00:33N 67°08' E 013°59'0 0.0
2015-Aug-26 23:33N 67°08' E 013°59'0 0.0
2015-Aug-26 22:33N 67°08' E 013°59'0 0.0
2015-Aug-26 21:33N 67°08' E 013°59'0 0.0
2015-Aug-26 20:33N 67°08' E 013°59'0 0.0
2015-Aug-26 19:33N 67°08' E 013°59'4 3.8
2015-Aug-26 18:30N 67°05' E 014°04'3 3.3
2015-Aug-26 17:33N 67°07' E 013°59'2 2.0
2015-Aug-26 16:32N 67°05' E 014°00'3 3.1
2015-Aug-26 15:34N 67°08' E 013°59'4 3.0
2015-Aug-26 14:18N 67°05' E 014°04'0 0.0
2015-Aug-26 13:33N 67°05' E 014°04'4 3.8
2015-Aug-26 12:33N 67°08' E 013°59'0 0.0
2015-Aug-26 11:33N 67°08' E 013°59'2 2.2
2015-Aug-26 10:33N 67°06' E 013°59'0 0.3
2015-Aug-26 09:33N 67°06' E 013°60'2 2.4
2015-Aug-26 08:33N 67°08' E 013°59'1 1.0
2015-Aug-26 07:33N 67°07' E 013°59'2 1.1
2015-Aug-26 05:27N 67°05' E 014°02'3 3.8
2015-Aug-26 04:33N 67°08' E 013°59'0 0.0
2015-Aug-26 03:33N 67°08' E 013°59'0 0.0
2015-Aug-26 02:33N 67°08' E 013°59'0 0.0
2015-Aug-26 01:33N 67°08' E 013°59'0 0.0
2015-Aug-26 00:33N 67°08' E 013°59'0 0.0
2015-Aug-25 23:33N 67°08' E 013°59'0 0.0
2015-Aug-25 22:33N 67°08' E 013°59'0 0.0
2015-Aug-25 21:33N 67°08' E 013°59'0 0.0
2015-Aug-25 20:34N 67°08' E 013°59'0 0.0
2015-Aug-25 19:33N 67°08' E 013°59'4 3.8
2015-Aug-25 18:30N 67°05' E 014°04'3 3.5
2015-Aug-25 17:33N 67°07' E 013°59'3 2.6
2015-Aug-25 16:33N 67°05' E 014°01'3 3.3
2015-Aug-25 15:33N 67°08' E 013°59'3 2.9
2015-Aug-25 14:27N 67°05' E 014°03'1 0.7
2015-Aug-25 13:31N 67°05' E 014°02'3 3.6
2015-Aug-25 12:33N 67°08' E 013°59'0 0.0
2015-Aug-25 11:34N 67°08' E 013°59'2 2.3
2015-Aug-25 10:33N 67°06' E 013°59'0 0.2
2015-Aug-25 09:33N 67°06' E 013°59'3 2.5
2015-Aug-25 08:33N 67°08' E 013°59'1 0.9
2015-Aug-25 07:33N 67°07' E 013°59'3 1.3
2015-Aug-25 05:28N 67°05' E 014°02'3 3.7
2015-Aug-25 04:34N 67°08' E 013°59'0 0.0
2015-Aug-25 03:33N 67°08' E 013°59'0 0.0
2015-Aug-25 02:33N 67°08' E 013°59'0 0.0
2015-Aug-25 01:34N 67°08' E 013°59'0 0.0
2015-Aug-25 00:33N 67°08' E 013°59'0 0.0
2015-Aug-24 23:33N 67°08' E 013°59'0 0.0
2015-Aug-24 22:33N 67°08' E 013°59'0 0.0
2015-Aug-24 21:33N 67°08' E 013°59'0 0.0
2015-Aug-24 20:33N 67°08' E 013°59'0 0.0
2015-Aug-24 19:34N 67°08' E 013°59'3 2.7
2015-Aug-24 18:19N 67°05' E 014°02'3 4.1
2015-Aug-24 17:33N 67°08' E 013°58'3 3.0
2015-Aug-24 16:33N 67°05' E 014°01'3 3.4
2015-Aug-24 15:33N 67°08' E 013°59'3 3.2
2015-Aug-24 14:33N 67°05' E 014°01'0 0.3
2015-Aug-24 13:08N 67°05' E 014°02'3 6.0
2015-Aug-24 12:34N 67°08' E 013°59'3 0.9
2015-Aug-24 09:34N 67°05' E 013°59'3 2.7
2015-Aug-24 08:33N 67°08' E 013°59'2 2.1
2015-Aug-24 07:33N 67°06' E 013°59'2 0.9
2015-Aug-24 05:33N 67°05' E 014°03'3 3.3
2015-Aug-24 04:33N 67°08' E 013°59'0 0.0
2015-Aug-24 03:33N 67°08' E 013°59'0 0.0
2015-Aug-24 02:33N 67°08' E 013°59'0 0.0
2015-Aug-24 01:33N 67°08' E 013°59'0 0.0
2015-Aug-24 00:33N 67°08' E 013°59'0 0.0
2015-Aug-23 23:33N 67°08' E 013°59'0 0.0
2015-Aug-23 22:33N 67°08' E 013°59'0 0.0
2015-Aug-23 21:33N 67°08' E 013°59'0 0.0
2015-Aug-23 20:33N 67°08' E 013°59'0 0.0
2015-Aug-23 19:33N 67°08' E 013°59'4 3.9
2015-Aug-23 18:32N 67°05' E 014°04'1 0.6
2015-Aug-23 17:22N 67°05' E 014°02'2 3.1
2015-Aug-23 16:33N 67°07' E 013°59'3 2.7
2015-Aug-23 15:25N 67°05' E 014°04'4 4.5
2015-Aug-23 14:34N 67°08' E 013°59'1 0.9
2015-Aug-23 13:34N 67°07' E 013°59'4 3.5
2015-Aug-23 12:33N 67°04' E 014°04'0 0.0
2015-Aug-23 11:33N 67°04' E 014°04'0 0.0
2015-Aug-23 10:33N 67°04' E 014°04'0 0.1
2015-Aug-23 08:32N 67°05' E 014°04'3 3.3
2015-Aug-23 07:33N 67°07' E 013°59'3 3.4
2015-Aug-23 06:33N 67°04' E 014°04'0 0.0
2015-Aug-23 05:34N 67°04' E 014°04'0 0.0
2015-Aug-23 04:34N 67°04' E 014°04'0 0.0
2015-Aug-23 03:33N 67°04' E 014°04'0 0.0
2015-Aug-23 02:33N 67°04' E 014°04'0 0.0
2015-Aug-23 01:33N 67°04' E 014°04'0 0.0
2015-Aug-23 00:33N 67°04' E 014°04'0 0.0
2015-Aug-22 23:34N 67°04' E 014°04'0 0.0
2015-Aug-22 22:33N 67°04' E 014°04'0 0.0
2015-Aug-22 21:33N 67°04' E 014°04'0 0.0
2015-Aug-22 20:33N 67°04' E 014°04'0 0.0
2015-Aug-22 19:33N 67°04' E 014°04'0 0.0
2015-Aug-22 18:33N 67°04' E 014°04'0 0.0
2015-Aug-22 17:34N 67°04' E 014°04'0 0.0
2015-Aug-22 16:34N 67°04' E 014°04'1 1.4
2015-Aug-22 15:34N 67°05' E 014°01'0 0.3
2015-Aug-22 14:34N 67°05' E 014°01'1 1.2
2015-Aug-22 13:33N 67°04' E 014°04'2 0.6
2015-Aug-22 09:33N 67°06' E 013°59'2 2.5
2015-Aug-22 08:33N 67°08' E 013°59'1 0.9
2015-Aug-22 07:33N 67°07' E 013°59'2 1.2
2015-Aug-22 06:16N 67°06' E 013°59'2 3.4
2015-Aug-22 05:33N 67°08' E 013°59'0 0.0
2015-Aug-22 04:33N 67°08' E 013°59'0 0.0
2015-Aug-22 03:33N 67°08' E 013°59'0 0.0
2015-Aug-22 02:33N 67°08' E 013°59'0 0.0
2015-Aug-22 01:33N 67°08' E 013°59'0 0.0
2015-Aug-22 00:33N 67°08' E 013°59'0 0.0
2015-Aug-21 23:30N 67°08' E 013°59'0 0.0
2015-Aug-21 22:33N 67°08' E 013°59'0 0.0
2015-Aug-21 21:32N 67°08' E 013°59'0 0.0
2015-Aug-21 20:27N 67°08' E 013°59'0 0.0
2015-Aug-21 19:33N 67°08' E 013°59'2 1.8
2015-Aug-21 18:12N 67°06' E 013°59'1 1.6
2015-Aug-21 17:32N 67°07' E 013°59'2 1.0
2015-Aug-21 15:34N 67°05' E 014°01'0 0.0
2015-Aug-21 14:34N 67°05' E 014°01'1 1.0
2015-Aug-21 13:33N 67°05' E 014°03'3 3.2
2015-Aug-21 12:34N 67°08' E 013°59'0 0.0
2015-Aug-21 11:33N 67°08' E 013°59'4 3.4
2015-Aug-21 10:16N 67°04' E 014°04'2 3.0
2015-Aug-21 09:33N 67°05' E 013°59'3 2.8
2015-Aug-21 08:33N 67°08' E 013°59'  

Dump ship's entire track history